sensor_id;sensor_type;location;lat;lon;timestamp;pressure;altitude;pressure_sealevel;temperature;humidity
17505;BME280;8870;50.950;11.762;2024-01-16T00:01:47;97051.44;;;0.22;100.00
17505;BME280;8870;50.950;11.762;2024-01-16T00:07:19;97035.53;;;0.22;100.00
17505;BME280;8870;50.950;11.762;2024-01-16T00:12:41;97046.13;;;0.22;100.00
17505;BME280;8870;50.950;11.762;2024-01-16T00:18:12;97062.28;;;0.19;100.00
17505;BME280;8870;50.950;11.762;2024-01-16T00:23:43;97059.91;;;0.16;100.00
17505;BME280;8870;50.950;11.762;2024-01-16T00:29:04;97065.28;;;0.05;100.00
17505;BME280;8870;50.950;11.762;2024-01-16T00:34:35;97062.03;;;0.01;100.00
17505;BME280;8870;50.950;11.762;2024-01-16T00:39:53;97075.25;;;0.01;100.00
17505;BME280;8870;50.950;11.762;2024-01-16T00:45:30;97068.88;;;0.04;100.00
17505;BME280;8870;50.950;11.762;2024-01-16T00:50:48;97071.59;;;0.13;100.00
17505;BME280;8870;50.950;11.762;2024-01-16T00:56:19;97070.22;;;0.19;100.00
17505;BME280;8870;50.950;11.762;2024-01-16T01:01:57;97077.78;;;0.24;100.00
17505;BME280;8870;50.950;11.762;2024-01-16T01:07:31;97088.97;;;0.27;100.00
17505;BME280;8870;50.950;11.762;2024-01-16T01:12:49;97079.47;;;0.25;100.00
17505;BME280;8870;50.950;11.762;2024-01-16T01:18:23;97104.00;;;0.27;100.00
17505;BME280;8870;50.950;11.762;2024-01-16T01:23:41;97095.97;;;0.28;100.00
17505;BME280;8870;50.950;11.762;2024-01-16T01:29:12;97103.63;;;0.32;100.00
17505;BME280;8870;50.950;11.762;2024-01-16T01:34:34;97102.66;;;0.33;100.00
17505;BME280;8870;50.950;11.762;2024-01-16T01:40:07;97133.47;;;0.34;100.00
17505;BME280;8870;50.950;11.762;2024-01-16T01:45:27;97117.47;;;0.35;100.00
17505;BME280;8870;50.950;11.762;2024-01-16T01:51:01;97122.63;;;0.37;100.00
17505;BME280;8870;50.950;11.762;2024-01-16T01:56:20;97151.78;;;0.37;100.00
17505;BME280;8870;50.950;11.762;2024-01-16T02:01:53;97159.00;;;0.35;100.00
17505;BME280;8870;50.950;11.762;2024-01-16T02:07:28;97180.91;;;0.37;100.00
17505;BME280;8870;50.950;11.762;2024-01-16T02:12:46;97176.34;;;0.39;100.00
17505;BME280;8870;50.950;11.762;2024-01-16T02:18:18;97186.22;;;0.37;100.00
17505;BME280;8870;50.950;11.762;2024-01-16T02:23:38;97187.91;;;0.38;100.00
17505;BME280;8870;50.950;11.762;2024-01-16T02:29:09;97203.53;;;0.41;100.00
17505;BME280;8870;50.950;11.762;2024-01-16T02:34:28;97202.69;;;0.40;100.00
17505;BME280;8870;50.950;11.762;2024-01-16T02:40:04;97201.97;;;0.38;100.00
17505;BME280;8870;50.950;11.762;2024-01-16T02:45:23;97203.78;;;0.38;100.00
17505;BME280;8870;50.950;11.762;2024-01-16T02:50:54;97218.72;;;0.39;100.00
17505;BME280;8870;50.950;11.762;2024-01-16T02:56:15;97231.13;;;0.38;100.00
17505;BME280;8870;50.950;11.762;2024-01-16T03:01:46;97232.22;;;0.36;100.00
17505;BME280;8870;50.950;11.762;2024-01-16T03:07:06;97230.06;;;0.29;100.00
17505;BME280;8870;50.950;11.762;2024-01-16T03:12:39;97247.44;;;0.22;100.00
17505;BME280;8870;50.950;11.762;2024-01-16T03:17:58;97256.00;;;0.14;100.00
17505;BME280;8870;50.950;11.762;2024-01-16T03:23:28;97262.16;;;0.15;100.00
17505;BME280;8870;50.950;11.762;2024-01-16T03:28:49;97254.94;;;0.17;100.00
17505;BME280;8870;50.950;11.762;2024-01-16T03:34:20;97269.81;;;0.18;100.00
17505;BME280;8870;50.950;11.762;2024-01-16T03:39:38;97297.03;;;0.20;100.00
17505;BME280;8870;50.950;11.762;2024-01-16T03:45:12;97275.97;;;0.19;100.00
17505;BME280;8870;50.950;11.762;2024-01-16T03:50:31;97267.56;;;0.13;100.00
17505;BME280;8870;50.950;11.762;2024-01-16T03:56:05;97294.91;;;0.14;100.00
17505;BME280;8870;50.950;11.762;2024-01-16T04:01:34;97303.97;;;0.00;100.00
17505;BME280;8870;50.950;11.762;2024-01-16T04:07:07;97298.91;;;-0.26;100.00
17505;BME280;8870;50.950;11.762;2024-01-16T04:12:25;97309.16;;;-0.44;100.00
17505;BME280;8870;50.950;11.762;2024-01-16T04:17:59;97312.25;;;-0.50;100.00
17505;BME280;8870;50.950;11.762;2024-01-16T04:23:17;97318.03;;;-0.56;100.00
17505;BME280;8870;50.950;11.762;2024-01-16T04:28:48;97334.84;;;-0.57;100.00
17505;BME280;8870;50.950;11.762;2024-01-16T04:34:09;97334.13;;;-0.59;100.00
17505;BME280;8870;50.950;11.762;2024-01-16T04:39:40;97340.97;;;-0.57;100.00
17505;BME280;8870;50.950;11.762;2024-01-16T04:44:58;97344.25;;;-0.53;100.00
17505;BME280;8870;50.950;11.762;2024-01-16T04:50:32;97343.63;;;-0.57;100.00
17505;BME280;8870;50.950;11.762;2024-01-16T04:55:50;97350.50;;;-0.66;100.00
17505;BME280;8870;50.950;11.762;2024-01-16T05:01:22;97351.66;;;-0.70;100.00
17505;BME280;8870;50.950;11.762;2024-01-16T05:06:56;97339.16;;;-0.79;100.00
17505;BME280;8870;50.950;11.762;2024-01-16T05:12:14;97366.44;;;-0.79;100.00
17505;BME280;8870;50.950;11.762;2024-01-16T05:17:46;97357.16;;;-0.84;100.00
17505;BME280;8870;50.950;11.762;2024-01-16T05:23:07;97354.25;;;-0.93;100.00
17505;BME280;8870;50.950;11.762;2024-01-16T05:28:39;97339.81;;;-1.00;100.00
17505;BME280;8870;50.950;11.762;2024-01-16T05:33:57;97361.94;;;-1.01;100.00
17505;BME280;8870;50.950;11.762;2024-01-16T05:39:31;97353.50;;;-1.06;100.00
17505;BME280;8870;50.950;11.762;2024-01-16T05:44:50;97379.56;;;-1.01;100.00
17505;BME280;8870;50.950;11.762;2024-01-16T05:50:20;97386.34;;;-0.97;100.00
17505;BME280;8870;50.950;11.762;2024-01-16T05:55:41;97390.28;;;-1.03;100.00
17505;BME280;8870;50.950;11.762;2024-01-16T06:01:12;97389.75;;;-1.08;100.00
17505;BME280;8870;50.950;11.762;2024-01-16T06:06:43;97389.28;;;-1.13;100.00
17505;BME280;8870;50.950;11.762;2024-01-16T06:12:06;97378.84;;;-1.03;100.00
17505;BME280;8870;50.950;11.762;2024-01-16T06:17:37;97372.94;;;-1.07;100.00
17505;BME280;8870;50.950;11.762;2024-01-16T06:22:55;97394.47;;;-1.00;100.00
17505;BME280;8870;50.950;11.762;2024-01-16T06:28:29;97389.06;;;-0.99;100.00
17505;BME280;8870;50.950;11.762;2024-01-16T06:33:48;97390.03;;;-1.00;100.00
17505;BME280;8870;50.950;11.762;2024-01-16T06:39:18;97397.81;;;-1.10;100.00
17505;BME280;8870;50.950;11.762;2024-01-16T06:44:39;97408.59;;;-1.13;100.00
17505;BME280;8870;50.950;11.762;2024-01-16T06:50:11;97414.75;;;-1.12;100.00
17505;BME280;8870;50.950;11.762;2024-01-16T06:55:29;97421.25;;;-1.05;100.00
17505;BME280;8870;50.950;11.762;2024-01-16T07:01:03;97433.53;;;-1.04;100.00
17505;BME280;8870;50.950;11.762;2024-01-16T07:06:40;97442.00;;;-1.12;100.00
17505;BME280;8870;50.950;11.762;2024-01-16T07:12:05;97436.34;;;-1.18;100.00
17505;BME280;8870;50.950;11.762;2024-01-16T07:17:38;97443.31;;;-1.17;100.00
17505;BME280;8870;50.950;11.762;2024-01-16T07:22:57;97442.69;;;-1.21;100.00
17505;BME280;8870;50.950;11.762;2024-01-16T07:28:30;97456.13;;;-1.24;100.00
17505;BME280;8870;50.950;11.762;2024-01-16T07:33:51;97446.72;;;-1.28;100.00
17505;BME280;8870;50.950;11.762;2024-01-16T07:39:22;97460.72;;;-1.39;100.00
17505;BME280;8870;50.950;11.762;2024-01-16T07:44:41;97465.88;;;-1.37;100.00
17505;BME280;8870;50.950;11.762;2024-01-16T07:50:14;97464.94;;;-1.36;100.00
17505;BME280;8870;50.950;11.762;2024-01-16T07:55:33;97476.84;;;-1.31;100.00
17505;BME280;8870;50.950;11.762;2024-01-16T08:01:03;97471.69;;;-1.32;100.00
17505;BME280;8870;50.950;11.762;2024-01-16T08:06:37;97476.13;;;-1.33;100.00
17505;BME280;8870;50.950;11.762;2024-01-16T08:11:56;97470.09;;;-1.35;100.00
17505;BME280;8870;50.950;11.762;2024-01-16T08:17:27;97470.75;;;-1.31;100.00
17505;BME280;8870;50.950;11.762;2024-01-16T08:22:48;97473.78;;;-1.25;100.00
17505;BME280;8870;50.950;11.762;2024-01-16T08:28:21;97475.53;;;-1.12;100.00
17505;BME280;8870;50.950;11.762;2024-01-16T08:33:41;97466.31;;;-1.06;100.00
17505;BME280;8870;50.950;11.762;2024-01-16T08:39:15;97474.75;;;-1.01;100.00
17505;BME280;8870;50.950;11.762;2024-01-16T08:44:35;97472.72;;;-0.98;100.00
17505;BME280;8870;50.950;11.762;2024-01-16T08:50:07;97471.53;;;-0.94;100.00
17505;BME280;8870;50.950;11.762;2024-01-16T08:55:28;97474.59;;;-0.87;100.00
17505;BME280;8870;50.950;11.762;2024-01-16T09:00:59;97486.16;;;-0.76;100.00
17505;BME280;8870;50.950;11.762;2024-01-16T09:06:19;97489.00;;;-0.67;100.00
17505;BME280;8870;50.950;11.762;2024-01-16T09:11:52;97491.69;;;-0.55;100.00
17505;BME280;8870;50.950;11.762;2024-01-16T09:17:15;97489.28;;;-0.47;100.00
17505;BME280;8870;50.950;11.762;2024-01-16T09:22:47;97499.19;;;-0.38;100.00
17505;BME280;8870;50.950;11.762;2024-01-16T09:28:08;97502.59;;;-0.24;100.00
17505;BME280;8870;50.950;11.762;2024-01-16T09:33:44;97488.44;;;-0.12;100.00
17505;BME280;8870;50.950;11.762;2024-01-16T09:38:55;97494.69;;;-0.02;100.00
17505;BME280;8870;50.950;11.762;2024-01-16T09:44:30;97489.41;;;0.10;100.00
17505;BME280;8870;50.950;11.762;2024-01-16T09:49:49;97500.03;;;0.21;100.00
17505;BME280;8870;50.950;11.762;2024-01-16T09:55:20;97506.06;;;0.35;100.00
17505;BME280;8870;50.950;11.762;2024-01-16T10:00:42;97503.66;;;0.43;100.00
17505;BME280;8870;50.950;11.762;2024-01-16T10:06:15;97520.50;;;0.53;100.00
17505;BME280;8870;50.950;11.762;2024-01-16T10:11:37;97507.75;;;0.58;100.00
17505;BME280;8870;50.950;11.762;2024-01-16T10:17:10;97522.56;;;0.61;100.00
17505;BME280;8870;50.950;11.762;2024-01-16T10:22:33;97522.91;;;0.68;100.00
17505;BME280;8870;50.950;11.762;2024-01-16T10:28:07;97522.44;;;0.74;100.00
17505;BME280;8870;50.950;11.762;2024-01-16T10:33:33;97510.16;;;0.73;100.00
17505;BME280;8870;50.950;11.762;2024-01-16T10:39:05;97509.06;;;0.75;100.00
17505;BME280;8870;50.950;11.762;2024-01-16T10:44:30;97503.75;;;0.75;100.00
17505;BME280;8870;50.950;11.762;2024-01-16T10:50:05;97509.66;;;0.79;100.00
17505;BME280;8870;50.950;11.762;2024-01-16T10:55:25;97508.47;;;0.83;100.00
17505;BME280;8870;50.950;11.762;2024-01-16T11:01:04;97504.72;;;0.86;100.00
17505;BME280;8870;50.950;11.762;2024-01-16T11:06:26;97508.91;;;0.88;100.00
17505;BME280;8870;50.950;11.762;2024-01-16T11:11:59;97505.91;;;0.93;100.00
17505;BME280;8870;50.950;11.762;2024-01-16T11:17:18;97500.47;;;0.95;100.00
17505;BME280;8870;50.950;11.762;2024-01-16T11:22:53;97501.22;;;0.97;100.00
17505;BME280;8870;50.950;11.762;2024-01-16T11:28:15;97495.53;;;1.01;100.00
17505;BME280;8870;50.950;11.762;2024-01-16T11:33:47;97498.78;;;1.05;100.00
17505;BME280;8870;50.950;11.762;2024-01-16T11:39:23;97502.88;;;1.09;100.00
17505;BME280;8870;50.950;11.762;2024-01-16T11:44:43;97507.81;;;1.14;100.00
17505;BME280;8870;50.950;11.762;2024-01-16T11:50:28;97491.66;;;1.17;100.00
17505;BME280;8870;50.950;11.762;2024-01-16T11:56:13;97495.34;;;1.26;100.00
17505;BME280;8870;50.950;11.762;2024-01-16T12:01:58;97491.72;;;1.27;100.00
17505;BME280;8870;50.950;11.762;2024-01-16T12:07:18;97489.91;;;1.27;100.00
17505;BME280;8870;50.950;11.762;2024-01-16T12:12:58;97473.13;;;1.27;100.00
17505;BME280;8870;50.950;11.762;2024-01-16T12:18:19;97472.31;;;1.26;100.00
17505;BME280;8870;50.950;11.762;2024-01-16T12:23:59;97461.81;;;1.25;100.00
17505;BME280;8870;50.950;11.762;2024-01-16T12:29:27;97465.91;;;1.29;100.00
17505;BME280;8870;50.950;11.762;2024-01-16T12:34:58;97451.88;;;1.38;100.00
17505;BME280;8870;50.950;11.762;2024-01-16T12:40:17;97456.44;;;1.36;100.00
17505;BME280;8870;50.950;11.762;2024-01-16T12:45:54;97458.03;;;1.38;100.00
17505;BME280;8870;50.950;11.762;2024-01-16T12:51:20;97460.69;;;1.38;100.00
17505;BME280;8870;50.950;11.762;2024-01-16T12:56:57;97466.25;;;1.35;100.00
17505;BME280;8870;50.950;11.762;2024-01-16T13:02:19;97458.78;;;1.29;100.00
17505;BME280;8870;50.950;11.762;2024-01-16T13:08:16;97460.13;;;1.23;100.00
17505;BME280;8870;50.950;11.762;2024-01-16T13:13:35;97469.31;;;1.19;100.00
17505;BME280;8870;50.950;11.762;2024-01-16T13:19:09;97470.53;;;1.15;100.00
17505;BME280;8870;50.950;11.762;2024-01-16T13:24:31;97469.09;;;1.11;100.00
17505;BME280;8870;50.950;11.762;2024-01-16T13:30:16;97453.53;;;1.06;100.00
17505;BME280;8870;50.950;11.762;2024-01-16T13:35:55;97448.25;;;1.06;100.00
17505;BME280;8870;50.950;11.762;2024-01-16T13:41:31;97446.59;;;1.05;100.00
17505;BME280;8870;50.950;11.762;2024-01-16T13:46:49;97434.97;;;1.06;100.00
17505;BME280;8870;50.950;11.762;2024-01-16T13:52:28;97437.53;;;1.08;100.00
17505;BME280;8870;50.950;11.762;2024-01-16T13:57:47;97430.53;;;1.07;100.00
17505;BME280;8870;50.950;11.762;2024-01-16T14:03:20;97430.66;;;1.05;100.00
17505;BME280;8870;50.950;11.762;2024-01-16T14:08:41;97434.28;;;1.04;100.00
17505;BME280;8870;50.950;11.762;2024-01-16T14:14:14;97422.38;;;0.99;100.00
17505;BME280;8870;50.950;11.762;2024-01-16T14:19:35;97417.56;;;0.92;100.00
17505;BME280;8870;50.950;11.762;2024-01-16T14:25:11;97410.81;;;0.88;100.00
17505;BME280;8870;50.950;11.762;2024-01-16T14:30:31;97413.72;;;0.85;100.00
17505;BME280;8870;50.950;11.762;2024-01-16T14:36:05;97413.97;;;0.82;100.00
17505;BME280;8870;50.950;11.762;2024-01-16T14:41:26;97426.50;;;0.80;100.00
17505;BME280;8870;50.950;11.762;2024-01-16T14:46:58;97423.41;;;0.75;100.00
17505;BME280;8870;50.950;11.762;2024-01-16T14:52:17;97429.78;;;0.72;100.00
17505;BME280;8870;50.950;11.762;2024-01-16T14:57:52;97427.63;;;0.66;100.00
17505;BME280;8870;50.950;11.762;2024-01-16T15:03:16;97434.03;;;0.64;100.00
17505;BME280;8870;50.950;11.762;2024-01-16T15:08:48;97419.56;;;0.56;100.00
17505;BME280;8870;50.950;11.762;2024-01-16T15:14:11;97423.19;;;0.55;100.00
17505;BME280;8870;50.950;11.762;2024-01-16T15:19:44;97428.75;;;0.52;100.00
17505;BME280;8870;50.950;11.762;2024-01-16T15:25:09;97429.22;;;0.46;100.00
17505;BME280;8870;50.950;11.762;2024-01-16T15:36:25;97420.19;;;0.37;100.00
17505;BME280;8870;50.950;11.762;2024-01-16T15:41:57;97414.28;;;0.34;100.00
17505;BME280;8870;50.950;11.762;2024-01-16T15:47:15;97415.63;;;0.28;100.00
17505;BME280;8870;50.950;11.762;2024-01-16T15:52:52;97419.47;;;0.24;100.00
17505;BME280;8870;50.950;11.762;2024-01-16T15:58:03;97419.25;;;0.15;100.00
17505;BME280;8870;50.950;11.762;2024-01-16T16:03:35;97422.38;;;0.09;100.00
17505;BME280;8870;50.950;11.762;2024-01-16T16:08:55;97431.66;;;0.04;100.00
17505;BME280;8870;50.950;11.762;2024-01-16T16:14:29;97427.78;;;-0.04;100.00
17505;BME280;8870;50.950;11.762;2024-01-16T16:19:48;97436.94;;;-0.08;100.00
17505;BME280;8870;50.950;11.762;2024-01-16T16:25:21;97448.84;;;-0.13;100.00
17505;BME280;8870;50.950;11.762;2024-01-16T16:30:40;97457.38;;;-0.21;100.00
17505;BME280;8870;50.950;11.762;2024-01-16T16:36:11;97461.31;;;-0.27;100.00
17505;BME280;8870;50.950;11.762;2024-01-16T16:41:31;97463.59;;;-0.34;100.00
17505;BME280;8870;50.950;11.762;2024-01-16T16:47:04;97462.59;;;-0.44;100.00
17505;BME280;8870;50.950;11.762;2024-01-16T16:52:37;97464.00;;;-0.51;100.00
17505;BME280;8870;50.950;11.762;2024-01-16T16:57:57;97471.69;;;-0.59;100.00
17505;BME280;8870;50.950;11.762;2024-01-16T17:03:31;97468.78;;;-0.68;100.00
17505;BME280;8870;50.950;11.762;2024-01-16T17:08:49;97475.72;;;-0.78;100.00
17505;BME280;8870;50.950;11.762;2024-01-16T17:14:23;97462.84;;;-0.83;100.00
17505;BME280;8870;50.950;11.762;2024-01-16T17:19:42;97447.41;;;-0.89;100.00
17505;BME280;8870;50.950;11.762;2024-01-16T17:25:14;97446.78;;;-0.93;100.00
17505;BME280;8870;50.950;11.762;2024-01-16T17:30:34;97455.06;;;-0.97;100.00
17505;BME280;8870;50.950;11.762;2024-01-16T17:36:10;97458.88;;;-1.01;100.00
17505;BME280;8870;50.950;11.762;2024-01-16T17:41:30;97458.47;;;-1.08;100.00
17505;BME280;8870;50.950;11.762;2024-01-16T17:47:04;97472.50;;;-1.19;100.00
17505;BME280;8870;50.950;11.762;2024-01-16T17:52:36;97484.34;;;-1.25;100.00
17505;BME280;8870;50.950;11.762;2024-01-16T17:57:54;97478.00;;;-1.35;100.00
17505;BME280;8870;50.950;11.762;2024-01-16T18:03:27;97467.38;;;-1.46;100.00
17505;BME280;8870;50.950;11.762;2024-01-16T18:08:53;97463.28;;;-1.50;100.00
17505;BME280;8870;50.950;11.762;2024-01-16T18:14:31;97457.47;;;-1.56;100.00
17505;BME280;8870;50.950;11.762;2024-01-16T18:19:51;97459.69;;;-1.62;100.00
17505;BME280;8870;50.950;11.762;2024-01-16T18:25:25;97465.50;;;-1.70;100.00
17505;BME280;8870;50.950;11.762;2024-01-16T18:30:43;97464.38;;;-1.79;100.00
17505;BME280;8870;50.950;11.762;2024-01-16T18:36:16;97463.03;;;-1.84;100.00
17505;BME280;8870;50.950;11.762;2024-01-16T18:41:35;97458.06;;;-1.89;100.00
17505;BME280;8870;50.950;11.762;2024-01-16T18:47:07;97462.94;;;-1.96;100.00
17505;BME280;8870;50.950;11.762;2024-01-16T18:52:40;97463.44;;;-2.04;100.00
17505;BME280;8870;50.950;11.762;2024-01-16T18:58:00;97455.13;;;-2.10;100.00
17505;BME280;8870;50.950;11.762;2024-01-16T19:03:32;97457.22;;;-2.15;100.00
17505;BME280;8870;50.950;11.762;2024-01-16T19:08:53;97454.06;;;-2.21;100.00
17505;BME280;8870;50.950;11.762;2024-01-16T19:14:27;97447.72;;;-2.31;100.00
17505;BME280;8870;50.950;11.762;2024-01-16T19:19:53;97445.81;;;-2.42;100.00
17505;BME280;8870;50.950;11.762;2024-01-16T19:25:32;97439.91;;;-2.45;100.00
17505;BME280;8870;50.950;11.762;2024-01-16T19:30:42;97443.28;;;-2.43;100.00
17505;BME280;8870;50.950;11.762;2024-01-16T19:42:04;97435.47;;;-2.58;100.00
17505;BME280;8870;50.950;11.762;2024-01-16T19:47:34;97431.63;;;-2.67;100.00
17505;BME280;8870;50.950;11.762;2024-01-16T19:55:31;97443.63;;;-2.75;100.00
17505;BME280;8870;50.950;11.762;2024-01-16T19:59:38;97448.28;;;-2.79;100.00
17505;BME280;8870;50.950;11.762;2024-01-16T20:05:20;97452.72;;;-2.80;100.00
17505;BME280;8870;50.950;11.762;2024-01-16T20:10:43;97450.16;;;-2.81;100.00
17505;BME280;8870;50.950;11.762;2024-01-16T20:16:21;97444.16;;;-2.83;100.00
17505;BME280;8870;50.950;11.762;2024-01-16T20:21:45;97428.44;;;-2.85;100.00
17505;BME280;8870;50.950;11.762;2024-01-16T20:27:17;97429.50;;;-2.87;100.00
17505;BME280;8870;50.950;11.762;2024-01-16T20:32:39;97415.69;;;-2.91;100.00
17505;BME280;8870;50.950;11.762;2024-01-16T20:38:11;97415.88;;;-2.94;100.00
17505;BME280;8870;50.950;11.762;2024-01-16T20:43:30;97416.00;;;-2.96;100.00
17505;BME280;8870;50.950;11.762;2024-01-16T20:49:04;97414.19;;;-2.95;100.00
17505;BME280;8870;50.950;11.762;2024-01-16T20:54:39;97407.13;;;-2.95;100.00
17505;BME280;8870;50.950;11.762;2024-01-16T20:59:58;97397.22;;;-2.91;100.00
17505;BME280;8870;50.950;11.762;2024-01-16T21:05:35;97400.38;;;-2.86;100.00
17505;BME280;8870;50.950;11.762;2024-01-16T21:10:54;97403.97;;;-2.87;100.00
17505;BME280;8870;50.950;11.762;2024-01-16T21:16:25;97399.56;;;-2.86;100.00
17505;BME280;8870;50.950;11.762;2024-01-16T21:21:47;97391.00;;;-2.90;100.00
17505;BME280;8870;50.950;11.762;2024-01-16T21:27:19;97401.00;;;-2.95;100.00
17505;BME280;8870;50.950;11.762;2024-01-16T21:32:38;97404.59;;;-2.96;100.00
17505;BME280;8870;50.950;11.762;2024-01-16T21:38:12;97391.09;;;-3.04;100.00
17505;BME280;8870;50.950;11.762;2024-01-16T21:43:31;97386.94;;;-3.08;100.00
17505;BME280;8870;50.950;11.762;2024-01-16T21:49:02;97382.75;;;-3.11;100.00
17505;BME280;8870;50.950;11.762;2024-01-16T21:54:35;97364.69;;;-3.17;100.00
17505;BME280;8870;50.950;11.762;2024-01-16T21:59:54;97362.16;;;-3.19;100.00
17505;BME280;8870;50.950;11.762;2024-01-16T22:05:26;97341.09;;;-3.19;100.00
17505;BME280;8870;50.950;11.762;2024-01-16T22:10:47;97337.63;;;-3.19;100.00
17505;BME280;8870;50.950;11.762;2024-01-16T22:16:18;97320.22;;;-3.22;100.00
17505;BME280;8870;50.950;11.762;2024-01-16T22:21:49;97316.00;;;-3.25;100.00
17505;BME280;8870;50.950;11.762;2024-01-16T22:27:09;97317.06;;;-3.27;100.00
17505;BME280;8870;50.950;11.762;2024-01-16T22:32:41;97309.91;;;-3.25;100.00
17505;BME280;8870;50.950;11.762;2024-01-16T22:37:59;97301.88;;;-3.23;100.00
17505;BME280;8870;50.950;11.762;2024-01-16T22:43:33;97291.34;;;-3.23;100.00
17505;BME280;8870;50.950;11.762;2024-01-16T22:48:58;97289.84;;;-3.28;100.00
17505;BME280;8870;50.950;11.762;2024-01-16T22:54:29;97294.50;;;-3.31;100.00
17505;BME280;8870;50.950;11.762;2024-01-16T22:59:49;97301.88;;;-3.36;100.00
17505;BME280;8870;50.950;11.762;2024-01-16T23:05:21;97288.16;;;-3.42;100.00
17505;BME280;8870;50.950;11.762;2024-01-16T23:10:40;97286.47;;;-3.43;100.00
17505;BME280;8870;50.950;11.762;2024-01-16T23:16:14;97269.47;;;-3.51;100.00
17505;BME280;8870;50.950;11.762;2024-01-16T23:21:32;97253.16;;;-3.57;100.00
17505;BME280;8870;50.950;11.762;2024-01-16T23:27:04;97244.84;;;-3.63;100.00
17505;BME280;8870;50.950;11.762;2024-01-16T23:32:28;97238.19;;;-3.69;100.00
17505;BME280;8870;50.950;11.762;2024-01-16T23:38:00;97229.22;;;-3.79;100.00
17505;BME280;8870;50.950;11.762;2024-01-16T23:43:18;97220.97;;;-3.88;100.00
17505;BME280;8870;50.950;11.762;2024-01-16T23:48:57;97215.16;;;-3.93;100.00
17505;BME280;8870;50.950;11.762;2024-01-16T23:54:30;97211.16;;;-3.98;100.00
17505;BME280;8870;50.950;11.762;2024-01-16T23:59:48;97208.84;;;-4.03;100.00
